Time;durP1;ratioP1;P1;durP2;ratioP2;P2;SDS_P1;SDS_P2;PMS_P1;PMS_P2;Temp;Humidity;BMP_temperature;BMP_pressure;BME280_temperature;BME280_humidity;BME280_pressure;Samples;Min_cycle;Max_cycle;Signal;HPM_P1;HPM_P2
2021/12/02 00:04:38;;;;;;;;;;;;;;;5.77;86.48;93935.88;10488497;28;2005;-74
2021/12/02 00:09:41;;;;;;;;;;;;;;;5.91;86.07;93942.09;10494050;28;1965;-74
2021/12/02 00:14:46;;;;;;;;;;;;;;;5.89;86.23;93938.13;10488793;28;1876;-73
2021/12/02 00:25:10;;;;;;;;;;;;;;;5.83;85.84;93931.28;10498857;28;1982;-73
2021/12/02 00:30:13;;;;;;;;;;;;;;;5.73;85.18;93924.22;10480635;28;1924;-73
2021/12/02 00:35:17;;;;;;;;;;;;;;;5.52;86.48;93923.69;10487239;28;1860;-74
2021/12/02 00:40:20;;;;;;;;;;;;;;;5.43;87.41;93925.41;10484244;28;2482;-74
2021/12/02 00:45:24;;;;;;;;;;;;;;;5.39;86.87;93922.53;10492495;28;1989;-74
2021/12/02 00:50:27;;;;;;;;;;;6.50;99.90;;;5.45;85.75;93928.59;10482825;28;1872;-74
2021/12/02 00:55:29;;;;;;;;;;;6.40;99.90;;;5.49;85.79;93937.59;10490897;28;1875;-73
2021/12/02 01:00:32;;;;;;;;;;;6.80;99.90;;;5.61;84.55;93947.84;10488175;28;1904;-73
2021/12/02 01:05:36;;;;;;;;;;;;;;;5.59;85.12;93937.44;10479384;28;2330;-74
2021/12/02 01:10:39;;;;;;;;;;;6.60;99.90;;;5.52;85.57;93933.56;10488330;28;1890;-73
2021/12/02 01:15:42;;;;;;;;;;;6.60;99.90;;;5.39;85.68;93938.50;10484119;28;1918;-72
2021/12/02 01:20:45;;;;;;;;;;;6.50;99.90;;;5.31;85.91;93933.81;10478565;28;1939;-73
2021/12/02 01:25:48;;;;;;;;;;;6.40;99.90;;;5.23;86.10;93941.66;10488450;28;1980;-73
2021/12/02 01:30:51;;;;;;;;;;;6.40;99.90;;;5.13;86.22;93926.56;10484622;28;1946;-73
2021/12/02 01:35:54;;;;;;;;;;;6.30;99.90;;;5.06;86.63;93928.78;10483059;28;1923;-73
2021/12/02 01:40:57;;;;;;;;;;;6.30;99.90;;;5.01;86.48;93939.50;10482553;28;2391;-73
2021/12/02 01:46:00;;;;;;;;;;;6.20;99.90;;;5.01;85.66;93926.19;10486262;28;1927;-74
2021/12/02 01:51:02;;;;;;;;;;;6.00;99.90;;;4.94;86.33;93920.41;10483349;28;1903;-73
2021/12/02 01:56:09;;;;;;;;;;;6.20;99.90;;;4.93;86.06;93916.16;10475489;28;1911;-74
2021/12/02 02:01:11;;;;;;;;;;;6.10;99.90;;;4.97;85.54;93933.16;10482240;28;1838;-74
2021/12/02 02:06:15;;;;;;;;;;;6.10;99.90;;;4.96;85.53;93927.03;10503880;28;1914;-74
2021/12/02 02:11:18;;;;;;;;;;;6.10;99.90;;;4.81;86.53;93935.97;10484648;28;1884;-73
2021/12/02 02:16:36;;;;;;;;;;;6.00;99.90;;;4.88;86.33;93936.44;10468663;28;1845;-72
2021/12/02 02:21:41;;;;;;;;;;;6.00;99.90;;;4.87;86.90;93945.50;10481568;28;2024;-73
2021/12/02 02:27:04;;;;;;;;;;;6.20;99.90;;;4.96;86.68;93952.84;10480132;28;2033;-72
2021/12/02 02:32:08;;;;;;;;;;;5.90;99.90;;;5.02;86.63;93947.19;10483459;28;2024;-73
2021/12/02 02:37:11;;;;;;;;;;;6.10;99.90;;;5.15;86.28;93943.88;10488865;28;2090;-73
2021/12/02 02:42:14;;;;;;;;;;;6.20;99.90;;;5.22;86.56;93946.19;10502415;28;1912;-72
2021/12/02 02:47:18;;;;;;;;;;;6.20;99.90;;;5.19;89.60;93952.06;10496516;28;2063;-73
2021/12/02 02:52:21;;;;;;;;;;;6.20;99.90;;;5.11;92.01;93944.72;10476034;28;2045;-74
2021/12/02 02:57:27;;;;;;;;;;;6.20;99.90;;;4.94;94.41;93949.69;10497880;28;2096;-73
2021/12/02 03:02:34;;;;;;;;;;;6.10;99.90;;;4.80;97.14;93950.38;10496705;28;2039;-74
2021/12/02 03:07:40;;;;;;;;;;;5.90;99.90;;;4.78;98.60;93954.38;10495577;28;2062;-73
2021/12/02 03:12:54;;;;;;;;;;;5.90;99.90;;;4.68;100.00;93963.25;10493487;28;1995;-73
2021/12/02 03:17:57;;;;;;;;;;;5.90;99.90;;;4.60;100.00;93977.97;10491005;28;2071;-73
2021/12/02 03:23:00;;;;;;;;;;;;;;;4.01;100.00;94002.09;10486201;28;2031;-72
2021/12/02 03:28:04;;;;;;;;;;;4.80;99.90;;;3.43;100.00;94009.81;10495598;28;2072;-72
2021/12/02 03:33:07;;;;;;;;;;;4.70;99.90;;;3.29;100.00;94006.16;10486881;28;2023;-73
2021/12/02 03:38:10;;;;;;;;;;;4.60;99.90;;;3.13;100.00;94024.78;10492453;28;2062;-73
2021/12/02 03:43:13;;;;;;;;;;;4.40;99.90;;;2.99;100.00;94021.09;10492118;28;2110;-73
2021/12/02 03:48:24;;;;;;;;;;;4.20;99.90;;;2.92;100.00;94018.69;10488524;28;2031;-73
2021/12/02 03:53:27;;;;;;;;;;;4.00;99.90;;;2.84;100.00;94015.81;10479953;28;1937;-73
2021/12/02 03:58:29;;;;;;;;;;;3.90;99.90;;;2.77;100.00;94012.63;10484584;28;2049;-73
2021/12/02 04:03:32;;;;;;;;;;;3.80;99.90;;;2.79;100.00;94011.28;10483257;28;2085;-71
2021/12/02 04:08:42;;;;;;;;;;;3.70;99.90;;;2.71;100.00;94010.00;10506614;28;2023;-72
2021/12/02 04:13:52;;;;;;;;;;;3.80;99.90;;;2.87;100.00;94015.28;10484460;28;2037;-72
2021/12/02 04:18:55;;;;;;;;;;;3.70;99.90;;;2.94;100.00;94000.66;10484701;28;2070;-72
2021/12/02 04:23:58;;;;;;;;;;;3.90;99.90;;;3.00;100.00;94001.47;10486317;28;2147;-74
2021/12/02 04:29:01;;;;;;;;;;;4.00;99.90;;;3.03;100.00;94003.56;10502357;28;2146;-72
2021/12/02 04:34:04;;;;;;;;;;;4.00;99.90;;;3.01;100.00;93994.28;10487954;28;2187;-71
2021/12/02 04:39:07;;;;;;;;;;;3.90;99.90;;;3.13;100.00;93995.59;10479025;28;2021;-71
2021/12/02 04:44:10;;;;;;;;;;;4.00;99.90;;;3.20;100.00;94003.25;10484369;28;1997;-71
2021/12/02 04:49:13;;;;;;;;;;;4.30;99.90;;;3.15;100.00;94004.06;10485759;28;2052;-71
2021/12/02 04:54:15;;;;;;;;;;;4.20;99.90;;;3.24;100.00;93999.81;10481826;28;2166;-70
2021/12/02 04:59:18;;;;;;;;;;;4.20;99.90;;;3.23;100.00;94008.00;10486797;28;2015;-71
2021/12/02 05:04:21;;;;;;;;;;;4.20;99.90;;;3.30;100.00;94002.41;10479919;28;2070;-71
2021/12/02 05:09:24;;;;;;;;;;;4.30;99.90;;;3.28;100.00;93993.94;10486094;28;2031;-71
2021/12/02 05:14:27;;;;;;;;;;;4.40;99.90;;;3.37;100.00;93994.94;10476606;28;2444;-71
2021/12/02 05:19:31;;;;;;;;;;;4.40;99.90;;;3.46;100.00;94001.31;10480245;28;2096;-71
2021/12/02 05:24:34;;;;;;;;;;;4.50;99.90;;;3.52;100.00;94002.88;10471824;28;2161;-71
2021/12/02 05:29:37;;;;;;;;;;;4.50;99.90;;;3.49;100.00;94000.75;10475582;28;2484;-71
2021/12/02 05:34:40;;;;;;;;;;;4.60;99.90;;;3.37;100.00;93998.44;10485092;28;2535;-72
2021/12/02 05:39:43;;;;;;;;;;;4.50;99.90;;;3.36;100.00;93993.38;10483579;28;2135;-73
2021/12/02 05:44:46;;;;;;;;;;;4.40;99.90;;;3.42;100.00;94001.03;10479298;28;1997;-72
2021/12/02 05:49:49;;;;;;;;;;;4.40;99.90;;;3.41;100.00;93996.00;10480233;28;2607;-71
2021/12/02 05:54:55;;;;;;;;;;;4.50;99.90;;;3.30;100.00;93986.47;10474451;28;1969;-72
2021/12/02 05:59:58;;;;;;;;;;;4.50;99.90;;;3.28;100.00;94000.03;10483209;28;2065;-72
2021/12/02 06:05:01;;;;;;;;;;;4.40;99.90;;;3.33;100.00;93985.97;10484530;28;2079;-72
2021/12/02 06:10:04;;;;;;;;;;;4.40;99.90;;;3.15;100.00;93984.69;10480693;28;2079;-71
2021/12/02 06:15:07;;;;;;;;;;;4.40;99.90;;;3.20;100.00;93985.47;10504814;28;1987;-72
2021/12/02 06:20:10;;;;;;;;;;;4.30;99.90;;;3.27;100.00;93987.84;10487920;28;2016;-72
2021/12/02 06:30:35;;;;;;;;;;;4.50;99.90;;;3.43;100.00;94001.84;10489871;28;2102;-71
2021/12/02 06:35:38;;;;;;;;;;;4.60;99.90;;;3.48;100.00;94005.25;10508736;28;2037;-72
2021/12/02 06:40:45;;;;;;;;;;;4.70;99.90;;;3.58;100.00;94007.09;10505513;28;2391;-70
2021/12/02 06:45:47;;;;;;;;;;;4.60;99.90;;;3.53;100.00;94013.22;10490669;28;1595;-71
2021/12/02 06:50:50;;;;;;;;;;;4.70;99.90;;;3.57;100.00;94025.97;10480821;28;2138;-70
2021/12/02 06:55:53;;;;;;;;;;;4.70;99.90;;;3.59;100.00;94035.25;10491221;28;2062;-71
2021/12/02 07:00:56;;;;;;;;;;;4.70;99.90;;;3.63;100.00;94038.19;10481812;28;1935;-70
2021/12/02 07:05:59;;;;;;;;;;;4.80;99.90;;;3.66;100.00;94027.00;10489716;28;2008;-70
2021/12/02 07:11:05;;;;;;;;;;;4.80;99.90;;;3.73;100.00;94043.44;10487574;28;2577;-70
2021/12/02 07:16:08;;;;;;;;;;;4.80;99.90;;;3.73;100.00;94038.09;10508539;28;1984;-72
2021/12/02 07:21:11;;;;;;;;;;;4.90;99.90;;;3.76;100.00;94027.75;10484777;28;2019;-70
2021/12/02 07:26:13;;;;;;;;;;;5.00;99.90;;;3.75;100.00;94034.13;10487829;28;2039;-70
2021/12/02 07:31:16;;;;;;;;;;;5.00;99.90;;;3.75;100.00;94039.44;10481803;28;2153;-69
2021/12/02 07:36:19;;;;;;;;;;;5.10;99.90;;;3.79;100.00;94042.34;10490398;28;1965;-69
2021/12/02 07:41:22;;;;;;;;;;;5.10;99.90;;;3.78;100.00;94046.84;10464496;28;2068;-78
2021/12/02 07:46:25;;;;;;;;;;;4.90;99.90;;;3.84;100.00;94046.84;10480008;28;2013;-74
2021/12/02 07:51:28;;;;;;;;;;;4.90;99.90;;;3.83;100.00;94039.94;10484552;28;1973;-77
2021/12/02 07:56:31;;;;;;;;;;;4.80;99.90;;;4.02;99.18;94031.06;10482970;28;1973;-75
2021/12/02 08:01:37;;;;;;;;;;;5.00;99.90;;;4.08;99.38;94042.47;10477562;28;2032;-73
2021/12/02 08:06:40;;;;;;;;;;;5.00;99.90;;;4.13;97.13;94041.63;10473594;28;2024;-75
2021/12/02 08:11:43;;;;;;;;;;;5.10;99.90;;;4.39;97.73;94040.41;10476125;28;1985;-74
2021/12/02 08:16:46;;;;;;;;;;;5.30;99.90;;;4.28;96.15;94034.34;10486553;28;2080;-73
2021/12/02 08:21:50;;;;;;;;;;;5.20;99.90;;;4.03;95.13;94034.50;10488434;28;2035;-74
2021/12/02 08:26:53;;;;;;;;;;;5.10;99.90;;;3.93;97.34;94031.91;10512458;28;2051;-76
2021/12/02 08:31:56;;;;;;;;;;;5.00;99.90;;;3.98;98.24;94043.31;10478700;28;1945;-74
2021/12/02 08:36:59;;;;;;;;;;;4.90;99.90;;;3.80;96.33;94031.44;10481149;28;2050;-76
2021/12/02 08:42:03;;;;;;;;;;;4.80;99.90;;;3.95;99.08;94032.44;10480303;28;2060;-75
2021/12/02 08:47:08;;;;;;;;;;;4.80;99.90;;;4.15;96.22;94024.34;10478938;28;1973;-75
2021/12/02 08:52:11;;;;;;;;;;;5.00;99.90;;;4.37;94.84;94025.78;10478386;28;2020;-74
2021/12/02 08:57:14;;;;;;;;;;;5.10;99.90;;;4.52;93.10;94020.34;10482785;28;2118;-74
2021/12/02 09:02:17;;;;;;;;;;;5.40;99.90;;;4.52;92.51;94028.34;10479077;28;1992;-74
2021/12/02 09:07:20;;;;;;;;;;;5.60;99.90;;;4.53;92.98;94032.59;10474206;28;2072;-73
2021/12/02 09:12:22;;;;;;;;;;;5.70;99.90;;;4.64;91.20;94031.41;10478310;28;2127;-75
2021/12/02 09:17:25;;;;;;;;;;;5.60;99.90;;;4.64;87.13;94036.72;10488471;28;2104;-74
2021/12/02 09:22:28;;;;;;;;;;;5.60;99.90;;;4.44;87.09;94023.59;10478119;28;2186;-75
2021/12/02 09:27:31;;;;;;;;;;;5.50;99.90;;;4.49;88.62;94034.19;10474423;28;2000;-77
2021/12/02 09:32:34;;;;;;;;;;;5.50;99.90;;;4.66;88.73;94026.63;10475178;28;2009;-69
2021/12/02 09:37:37;;;;;;;;;;;5.50;99.90;;;5.02;86.05;94020.97;10484686;28;2122;-70
2021/12/02 09:42:40;;;;;;;;;;;5.80;99.90;;;5.07;83.50;94026.25;10480423;28;2036;-71
2021/12/02 09:47:43;;;;;;;;;;;5.90;99.90;;;5.08;82.80;94022.50;10477767;28;1975;-70
2021/12/02 09:52:46;;;;;;;;;;;5.90;99.90;;;5.11;83.20;94014.75;10465452;28;2005;-71
2021/12/02 09:57:51;;;;;;;;;;;5.90;99.90;;;5.18;82.26;93997.66;10476604;28;2049;-69
2021/12/02 10:03:00;;;;;;;;;;;5.90;99.90;;;5.37;84.46;94019.81;10473718;28;1932;-70
2021/12/02 10:08:06;;;;;;;;;;;6.20;99.90;;;5.83;81.97;94013.94;10487521;28;1988;-74
2021/12/02 10:13:18;;;;;;;;;;;6.50;99.90;;;5.90;79.40;94009.03;10481748;28;2088;-70
2021/12/02 10:18:26;;;;;;;;;;;6.90;99.90;;;5.52;79.67;94003.63;10485319;28;2075;-72
2021/12/02 10:23:34;;;;;;;;;;;6.70;99.90;;;5.72;80.65;93997.25;10481558;28;2119;-74
2021/12/02 10:28:37;;;;;;;;;;;6.60;99.90;;;5.76;79.16;93992.97;10487975;28;1994;-74
2021/12/02 10:33:39;;;;;;;;;;;6.70;99.90;;;5.66;80.81;93985.91;10488920;28;2058;-74
2021/12/02 10:38:43;;;;;;;;;;;6.70;99.90;;;5.79;83.47;93983.59;10479737;28;2147;-75
2021/12/02 10:43:45;;;;;;;;;;;6.70;99.90;;;5.55;81.53;93986.31;10490567;28;2542;-77
2021/12/02 10:48:48;;;;;;;;;;;6.60;99.90;;;5.42;81.64;93982.47;10485091;28;1992;-77
2021/12/02 10:53:51;;;;;;;;;;;6.50;99.90;;;5.58;79.62;93975.06;10478735;28;1969;-77
2021/12/02 10:58:54;;;;;;;;;;;6.40;99.90;;;5.61;79.62;93963.84;10483210;28;2123;-76
2021/12/02 11:03:56;;;;;;;;;;;6.50;99.90;;;5.76;78.70;93960.16;10484806;28;1903;-75
2021/12/02 11:08:59;;;;;;;;;;;5.90;99.90;;;5.64;78.58;93952.59;10488705;28;1909;-75
2021/12/02 11:14:05;;;;;;;;;;;6.60;99.90;;;5.52;78.74;93954.88;10481857;28;1825;-75
2021/12/02 11:19:08;;;;;;;;;;;6.60;99.90;;;5.49;79.05;93947.47;10484523;28;1925;-76
2021/12/02 11:24:11;;;;;;;;;;;6.50;99.90;;;5.39;80.01;93945.72;10482355;28;1828;-75
2021/12/02 11:29:14;;;;;;;;;;;6.50;99.90;;;5.15;80.40;93941.22;10479035;28;1972;-75
2021/12/02 11:34:17;;;;;;;;;;;6.30;99.90;;;5.36;80.14;93940.97;10487426;28;1820;-76
2021/12/02 11:39:21;;;;;;;;;;;6.40;99.90;;;5.59;77.26;93934.00;10482075;28;1904;-75
2021/12/02 11:44:24;;;;;;;;;;;6.50;99.90;;;5.57;76.76;93928.97;10483384;28;1853;-76
2021/12/02 11:49:27;;;;;;;;;;;6.50;99.90;;;5.73;77.32;93915.44;10485113;28;1973;-76
2021/12/02 11:54:29;;;;;;;;;;;6.60;99.90;;;6.05;77.28;93904.84;10474676;28;1754;-73
2021/12/02 11:59:33;;;;;;;;;;;6.90;99.90;;;6.23;76.33;93908.56;10475966;28;1911;-75
2021/12/02 12:04:38;;;;;;;;;;;6.90;99.90;;;6.15;75.53;93904.69;10479920;28;1892;-74
2021/12/02 12:09:41;;;;;;;;;;;7.00;99.90;;;6.14;76.23;93902.31;10483317;28;1936;-73
2021/12/02 12:14:44;;;;;;;;;;;6.60;99.90;;;6.02;74.97;93889.41;10476382;28;2265;-73
2021/12/02 12:19:47;;;;;;;;;;;7.00;99.90;;;6.35;73.10;93892.09;10479091;28;1903;-72
2021/12/02 12:24:50;;;;;;;;;;;7.10;99.90;;;6.50;71.15;93894.50;10478593;28;2057;-73
2021/12/02 12:29:53;;;;;;;;;;;7.30;99.90;;;6.47;71.52;93893.22;10503659;28;2047;-73
2021/12/02 12:35:12;;;;;;;;;;;7.30;99.90;;;6.44;72.13;93896.47;10491009;28;1891;-74
2021/12/02 12:40:15;;;;;;;;;;;7.30;99.90;;;6.25;73.49;93902.94;10484913;28;1896;-74
2021/12/02 12:45:18;;;;;;;;;;;7.20;99.90;;;5.86;73.80;93894.16;10488200;28;1867;-74
2021/12/02 12:50:21;;;;;;;;;;;7.10;99.90;;;5.70;74.97;93898.13;10510502;28;1922;-75
2021/12/02 12:55:24;;;;;;;;;;;7.60;99.90;;;5.82;77.86;93893.16;10487714;28;1927;-68
2021/12/02 13:00:27;;;;;;;;;;;6.70;99.90;;;5.82;73.76;93884.38;10493002;28;1903;-69
2021/12/02 13:05:30;;;;;;;;;;;6.70;99.90;;;5.98;72.69;93896.44;10487884;28;1900;-69
2021/12/02 13:10:33;;;;;;;;;;;6.80;99.90;;;6.15;74.96;93883.34;10476136;28;1968;-68
2021/12/02 13:15:36;;;;;;;;;;;7.00;99.90;;;6.14;72.87;93891.63;10478410;28;1870;-69
2021/12/02 13:20:40;;;;;;;;;;;7.00;99.90;;;6.09;72.81;93889.03;10477771;28;2020;-67
2021/12/02 13:25:44;;;;;;;;;;;7.00;99.90;;;6.16;72.63;93881.47;10461446;28;1887;-68
2021/12/02 13:30:47;;;;;;;;;;;6.90;99.90;;;6.26;72.98;93883.97;10471489;28;1886;-69
2021/12/02 13:35:50;;;;;;;;;;;7.00;99.90;;;5.84;72.34;93882.97;10487837;28;1894;-68
2021/12/02 13:40:53;;;;;;;;;;;6.80;99.90;;;5.91;75.71;93875.44;10481405;28;1872;-69
2021/12/02 13:45:56;;;;;;;;;;;6.90;99.90;;;5.66;76.13;93886.44;10478426;28;2405;-68
2021/12/02 13:50:59;;;;;;;;;;;6.70;99.90;;;5.89;74.94;93888.25;10480213;28;2107;-68
2021/12/02 13:56:02;;;;;;;;;;;6.60;99.90;;;5.83;73.28;93893.94;10479901;28;1966;-75
2021/12/02 14:01:05;;;;;;;;;;;6.70;99.90;;;5.60;74.87;93898.28;10470953;28;1979;-74
2021/12/02 14:06:09;;;;;;;;;;;6.40;99.90;;;5.24;76.37;93895.28;10475666;28;1978;-75
2021/12/02 14:11:13;;;;;;;;;;;6.40;99.90;;;5.04;76.45;93901.66;10478540;28;1988;-75
2021/12/02 14:16:17;;;;;;;;;;;6.20;99.90;;;5.04;76.02;93907.00;10479825;28;1994;-75
2021/12/02 14:21:20;;;;;;;;;;;6.00;99.90;;;5.08;76.31;93914.09;10477796;28;2288;-75
2021/12/02 14:26:24;;;;;;;;;;;6.10;99.90;;;5.00;77.17;93916.59;10475868;28;2039;-75
2021/12/02 14:31:27;;;;;;;;;;;6.00;99.90;;;5.05;76.65;93924.53;10480172;28;1982;-75
2021/12/02 14:36:30;;;;;;;;;;;6.00;99.90;;;4.99;77.07;93925.69;10469500;28;1935;-75
2021/12/02 14:41:33;;;;;;;;;;;5.90;99.90;;;4.76;78.07;93953.84;10487687;28;1879;-76
2021/12/02 14:46:37;;;;;;;;;;;;;;;2.14;98.08;93992.50;10486190;28;1809;-75
2021/12/02 14:51:40;;;;;;;;;;;;;;;1.23;100.00;94008.97;10488164;28;1910;-75
2021/12/02 14:56:43;;;;;;;;;;;2.20;99.90;;;0.80;100.00;94015.34;10475857;28;1900;-76
2021/12/02 15:01:46;;;;;;;;;;;2.10;99.90;;;0.44;100.00;94024.88;10483741;28;1951;-74
2021/12/02 15:06:49;;;;;;;;;;;1.60;99.90;;;0.24;100.00;94031.59;10478935;28;1801;-76
2021/12/02 15:11:52;;;;;;;;;;;1.30;99.90;;;0.33;100.00;94039.88;10488369;28;2352;-77
2021/12/02 15:16:55;;;;;;;;;;;1.10;99.90;;;0.28;100.00;94053.06;10483196;28;2254;-77
2021/12/02 15:21:58;;;;;;;;;;;1.30;99.90;;;0.24;100.00;94051.94;10480271;28;1960;-75
2021/12/02 15:27:00;;;;;;;;;;;1.30;99.90;;;0.03;100.00;94069.47;10486831;28;2069;-75
2021/12/02 15:32:03;;;;;;;;;;;1.20;99.90;;;-0.07;100.00;94078.06;10483286;28;1902;-74
2021/12/02 15:37:06;;;;;;;;;;;1.00;99.90;;;-0.13;100.00;94088.84;10484105;28;1860;-75
2021/12/02 15:42:09;;;;;;;;;;;1.00;99.90;;;-0.16;100.00;94089.34;10487239;28;1959;-75
2021/12/02 15:47:15;;;;;;;;;;;0.80;99.90;;;-0.15;100.00;94083.81;10484229;28;1943;-74
2021/12/02 15:52:18;;;;;;;;;;;0.80;99.90;;;-0.02;100.00;94104.53;10479879;28;1983;-75
2021/12/02 15:57:21;;;;;;;;;;;1.00;99.90;;;0.03;100.00;94100.38;10481351;28;1939;-74
2021/12/02 16:02:27;;;;;;;;;;;1.00;99.90;;;-0.06;100.00;94103.47;10481677;28;1922;-74
2021/12/02 16:07:34;;;;;;;;;;;1.00;99.90;;;0.02;100.00;94122.56;10478098;28;1944;-72
2021/12/02 16:12:38;;;;;;;;;;;1.00;99.90;;;0.06;100.00;94129.72;10484937;28;1970;-74
2021/12/02 16:17:41;;;;;;;;;;;1.00;99.90;;;0.08;100.00;94143.50;10472502;28;2017;-74
2021/12/02 16:22:43;;;;;;;;;;;1.00;99.90;;;0.23;100.00;94159.50;10481384;28;1884;-76
2021/12/02 16:27:46;;;;;;;;;;;1.20;99.90;;;0.21;100.00;94155.53;10477967;28;2345;-75
2021/12/02 16:32:49;;;;;;;;;;;1.10;99.90;;;0.30;100.00;94175.16;10474070;28;2119;-74
2021/12/02 16:37:52;;;;;;;;;;;1.20;99.90;;;0.31;100.00;94176.75;10476249;28;1954;-76
2021/12/02 16:42:55;;;;;;;;;;;1.30;99.90;;;0.34;100.00;94175.47;10474445;28;2269;-75
2021/12/02 16:47:59;;;;;;;;;;;1.30;99.90;;;0.37;100.00;94191.63;10494569;28;2132;-76
2021/12/02 16:53:02;;;;;;;;;;;1.40;99.90;;;0.31;100.00;94181.25;10476296;28;2199;-76
2021/12/02 16:58:07;;;;;;;;;;;1.40;99.90;;;0.26;100.00;94192.59;10492966;28;2044;-76
2021/12/02 17:03:10;;;;;;;;;;;1.30;99.90;;;0.25;100.00;94188.31;10475788;28;1964;-76
2021/12/02 17:08:13;;;;;;;;;;;1.30;99.90;;;0.34;100.00;94186.84;10481675;28;1937;-76
2021/12/02 17:13:36;;;;;;;;;;;1.30;99.90;;;0.41;100.00;94192.72;10488162;28;1947;-75
2021/12/02 17:18:59;;;;;;;;;;;1.30;99.90;;;0.57;100.00;94206.09;10483816;28;1915;-76
2021/12/02 17:24:03;;;;;;;;;;;1.50;99.90;;;0.54;100.00;94210.84;10494710;28;1859;-75
2021/12/02 17:29:07;;;;;;;;;;;1.50;99.90;;;0.57;100.00;94227.25;10486533;28;1996;-75
2021/12/02 17:34:09;;;;;;;;;;;1.50;99.90;;;0.67;100.00;94243.22;10504470;28;1996;-78
2021/12/02 17:39:12;;;;;;;;;;;1.50;99.90;;;0.66;100.00;94242.44;10518479;28;2036;-77
2021/12/02 17:44:15;;;;;;;;;;;1.60;99.90;;;0.75;100.00;94256.00;10503130;28;1962;-78
2021/12/02 17:49:18;;;;;;;;;;;1.70;99.90;;;0.77;100.00;94264.50;10505347;28;2187;-79
2021/12/02 17:54:21;;;;;;;;;;;1.90;99.90;;;0.78;100.00;94284.63;10499957;28;1903;-77
2021/12/02 17:59:24;;;;;;;;;;;2.00;99.90;;;0.86;100.00;94273.56;10503718;28;2026;-78
2021/12/02 18:04:27;;;;;;;;;;;1.70;99.90;;;0.79;100.00;94294.13;10491414;28;2029;-78
2021/12/02 18:09:30;;;;;;;;;;;1.80;99.90;;;0.70;100.00;94311.47;10501372;28;2015;-77
2021/12/02 18:14:33;;;;;;;;;;;1.70;99.90;;;0.60;100.00;94320.09;10491818;28;1842;-78
2021/12/02 18:19:36;;;;;;;;;;;1.60;99.90;;;0.53;100.00;94345.94;10513429;28;1785;-78
2021/12/02 18:24:39;;;;;;;;;;;1.60;99.90;;;0.53;100.00;94348.59;10506987;28;1896;-77
2021/12/02 18:29:41;;;;;;;;;;;1.90;99.90;;;0.61;100.00;94363.22;10511561;28;2077;-77
2021/12/02 18:34:44;;;;;;;;;;;1.60;99.90;;;0.69;100.00;94379.44;10501229;28;1837;-77
2021/12/02 18:39:47;;;;;;;;;;;1.60;99.90;;;0.79;100.00;94381.44;10514248;28;1896;-77
2021/12/02 18:44:50;;;;;;;;;;;1.70;99.90;;;0.87;100.00;94388.94;10509817;28;1931;-78
2021/12/02 18:49:55;;;;;;;;;;;1.80;99.90;;;0.92;100.00;94398.78;10512668;28;2079;-78
2021/12/02 18:55:19;;;;;;;;;;;1.90;99.90;;;0.93;100.00;94409.09;10503980;28;2145;-80
2021/12/02 19:00:25;;;;;;;;;;;2.00;99.90;;;0.93;100.00;94413.59;10513612;28;2008;-80
2021/12/02 19:05:31;;;;;;;;;;;2.00;99.90;;;0.98;100.00;94414.47;10505214;28;1926;-76
2021/12/02 19:26:35;;;;;;;;;;;2.30;99.90;;;1.20;100.00;94448.03;10509324;28;1871;-77
2021/12/02 19:31:38;;;;;;;;;;;2.30;99.90;;;1.29;100.00;94449.22;10501626;28;1985;-77
2021/12/02 19:36:41;;;;;;;;;;;2.30;99.90;;;1.17;100.00;94448.56;10497830;28;1960;-77
2021/12/02 19:41:44;;;;;;;;;;;2.30;99.90;;;1.04;100.00;94455.81;10495492;28;1932;-76
2021/12/02 19:46:47;;;;;;;;;;;2.10;99.90;;;1.01;100.00;94466.06;10490406;28;1911;-76
2021/12/02 19:51:50;;;;;;;;;;;2.10;99.90;;;0.92;100.00;94478.16;10491079;28;1935;-76
2021/12/02 19:56:53;;;;;;;;;;;2.10;99.90;;;0.74;100.00;94482.66;10490454;28;1968;-79
2021/12/02 20:01:56;;;;;;;;;;;2.00;99.90;;;0.47;100.00;94498.41;10486006;28;2176;-76
2021/12/02 20:06:59;;;;;;;;;;;1.80;99.90;;;0.25;100.00;94511.56;10482193;28;1970;-78
2021/12/02 20:12:02;;;;;;;;;;;1.50;99.90;;;0.12;100.00;94517.16;10508354;28;1959;-79
2021/12/02 20:17:10;;;;;;;;;;;1.30;99.90;;;-0.03;100.00;94533.53;10496610;28;1871;-79
2021/12/02 20:22:14;;;;;;;;;;;1.10;99.90;;;-0.09;100.00;94537.13;10489209;28;2055;-79
2021/12/02 20:27:17;;;;;;;;;;;1.00;99.90;;;-0.17;100.00;94542.81;10494049;28;1897;-80
2021/12/02 20:32:21;;;;;;;;;;;1.10;99.90;;;-0.24;100.00;94552.72;10500758;28;1993;-79
2021/12/02 20:37:25;;;;;;;;;;;1.00;99.90;;;-0.18;100.00;94562.34;10510882;28;1828;-80
2021/12/02 20:42:27;;;;;;;;;;;0.90;99.90;;;-0.21;100.00;94568.06;10503140;28;1942;-81
2021/12/02 20:47:40;;;;;;;;;;;1.00;99.90;;;-0.18;100.00;94580.03;10498773;28;1893;-81
2021/12/02 20:52:44;;;;;;;;;;;1.00;99.90;;;-0.14;100.00;94581.94;10508347;28;1918;-80
2021/12/02 20:57:49;;;;;;;;;;;1.00;99.90;;;-0.15;100.00;94590.91;10506948;28;1958;-80
2021/12/02 21:02:52;;;;;;;;;;;1.00;99.90;;;-0.16;100.00;94594.59;10501525;28;1828;-80
2021/12/02 21:07:55;;;;;;;;;;;1.00;99.90;;;-0.22;100.00;94605.28;10506500;28;1887;-84
2021/12/02 21:12:58;;;;;;;;;;;1.10;99.90;;;-0.18;100.00;94617.81;10520291;28;1920;-83
2021/12/02 21:18:01;;;;;;;;;;;1.00;99.90;;;-0.18;100.00;94617.81;10503173;28;2147;-81
2021/12/02 21:23:08;;;;;;;;;;;1.00;99.90;;;-0.13;100.00;94625.81;10493516;28;1967;-79
2021/12/02 21:28:10;;;;;;;;;;;1.00;99.90;;;-0.19;100.00;94642.63;10499069;28;1853;-79
2021/12/02 21:33:25;;;;;;;;;;;1.00;99.90;;;-0.22;100.00;94644.91;10506810;28;1962;-80
2021/12/02 21:38:28;;;;;;;;;;;0.90;99.90;;;-0.28;100.00;94654.56;10495409;28;2034;-79
2021/12/02 21:43:31;;;;;;;;;;;0.80;99.90;;;-0.21;100.00;94670.28;10493126;28;1935;-80
2021/12/02 21:48:34;;;;;;;;;;;0.80;99.90;;;-0.27;100.00;94677.28;10507348;28;2547;-79
2021/12/02 21:53:38;;;;;;;;;;;0.80;99.90;;;-0.22;100.00;94685.31;10492663;28;2044;-81
2021/12/02 21:58:40;;;;;;;;;;;0.80;99.90;;;-0.29;100.00;94701.28;10510047;28;1910;-76
2021/12/02 22:03:44;;;;;;;;;;;0.80;99.90;;;-0.28;100.00;94712.66;10491896;28;1934;-76
2021/12/02 22:08:47;;;;;;;;;;;0.80;99.90;;;-0.28;100.00;94712.66;10492345;28;2020;-77
2021/12/02 22:13:51;;;;;;;;;;;0.80;99.90;;;-0.35;100.00;94725.19;10495273;28;1914;-75
2021/12/02 22:18:53;;;;;;;;;;;0.80;99.90;;;-0.31;100.00;94723.69;10492426;28;1791;-76
2021/12/02 22:23:57;;;;;;;;;;;0.80;99.90;;;-0.34;100.00;94743.44;10493592;28;1887;-76
2021/12/02 22:29:02;;;;;;;;;;;0.80;99.90;;;-0.32;100.00;94748.47;10480301;28;1965;-76
2021/12/02 22:34:05;;;;;;;;;;;0.80;99.90;;;-0.38;100.00;94744.94;10486920;28;1914;-76
2021/12/02 22:39:08;;;;;;;;;;;0.70;99.90;;;-0.39;100.00;94738.03;10487726;28;1934;-76
2021/12/02 22:44:11;;;;;;;;;;;0.90;99.90;;;-0.39;100.00;94747.78;10490633;28;1891;-76
2021/12/02 22:49:14;;;;;;;;;;;0.60;99.90;;;-0.38;100.00;94749.41;10484980;28;2218;-76
2021/12/02 22:54:17;;;;;;;;;;;0.80;99.90;;;-0.47;100.00;94750.78;10479144;28;1922;-76
2021/12/02 22:59:19;;;;;;;;;;;0.60;99.90;;;-0.52;100.00;94769.94;10495140;28;1896;-76
2021/12/02 23:04:22;;;;;;;;;;;0.50;99.90;;;-0.57;100.00;94769.84;10485588;28;1930;-76
2021/12/02 23:09:25;;;;;;;;;;;0.50;99.90;;;-0.53;100.00;94772.81;10487233;28;1821;-76
2021/12/02 23:14:28;;;;;;;;;;;0.40;99.90;;;-0.68;100.00;94782.00;10491193;28;1951;-76
2021/12/02 23:19:31;;;;;;;;;;;0.50;99.90;;;-0.79;100.00;94785.41;10487050;28;1782;-76
2021/12/02 23:24:39;;;;;;;;;;;0.40;99.90;;;-0.73;100.00;94784.50;10485795;28;1899;-76
2021/12/02 23:29:42;;;;;;;;;;;0.40;99.90;;;-0.73;100.00;94789.00;10497688;28;1936;-76
2021/12/02 23:34:45;;;;;;;;;;;0.40;99.90;;;-0.82;100.00;94788.53;10490546;28;1977;-76
2021/12/02 23:39:48;;;;;;;;;;;0.40;99.90;;;-0.96;100.00;94782.63;10482023;28;1929;-76
2021/12/02 23:44:51;;;;;;;;;;;;;;;-1.10;100.00;94781.22;10502018;28;1868;-76
2021/12/02 23:49:55;;;;;;;;;;;;;;;-1.22;100.00;94775.91;10484699;28;1872;-76
2021/12/02 23:54:57;;;;;;;;;;;0.10;99.90;;;-1.15;100.00;94789.78;10477228;28;1941;-76
